Time;durP1;ratioP1;P1;durP2;ratioP2;P2;SDS_P1;SDS_P2;PMS_P1;PMS_P2;Temp;Humidity;BMP_temperature;BMP_pressure;BME280_temperature;BME280_humidity;BME280_pressure;Samples;Min_cycle;Max_cycle;Signal;HPM_P1;HPM_P2
2023/03/24 00:01:16;;;;;;;1.30;0.43;;;16.20;99.90;;;16.26;58.35;99781.78;6053222;23;97826;-50
2023/03/24 00:03:47;;;;;;;0.30;0.20;;;16.30;99.90;;;16.34;54.04;99775.91;6056019;23;97996;-48
2023/03/24 00:06:13;;;;;;;0.50;0.23;;;16.30;99.90;;;16.33;56.17;99772.38;6050164;23;97445;-50
2023/03/24 00:08:42;;;;;;;1.60;0.53;;;16.30;99.90;;;16.31;56.78;99758.34;6057175;23;97874;-48
2023/03/24 00:11:11;;;;;;;0.57;0.20;;;16.30;99.90;;;16.35;54.43;99765.16;6053961;23;98336;-49
2023/03/24 00:13:38;;;;;;;1.53;0.40;;;16.30;99.90;;;16.31;54.46;99758.34;6051310;23;97079;-49
2023/03/24 00:16:08;;;;;;;1.07;0.70;;;16.30;99.90;;;16.33;58.55;99759.09;6057390;23;97297;-51
2023/03/24 00:18:35;;;;;;;0.90;0.47;;;16.30;99.90;;;16.35;57.91;99759.84;6022947;23;98413;-51
2023/03/24 00:21:03;;;;;;;4.30;0.90;;;16.30;99.90;;;16.38;55.33;99747.28;6053337;23;97510;-47
2023/03/24 00:23:33;;;;;;;2.43;0.67;;;16.30;99.90;;;16.41;56.60;99747.03;6050663;23;96671;-51
2023/03/24 00:26:13;;;;;;;1.83;0.60;;;16.40;99.90;;;16.39;54.08;99739.16;6055101;23;97207;-47
2023/03/24 00:28:47;;;;;;;1.27;0.60;;;16.40;99.90;;;16.40;56.30;99734.69;6048288;23;101543;-49
2023/03/24 00:31:14;;;;;;;0.43;0.40;;;16.40;99.90;;;16.42;55.04;99727.44;6051809;23;97638;-47
2023/03/24 00:33:43;;;;;;;1.17;0.60;;;16.40;99.90;;;16.44;54.88;99717.53;6054493;23;97064;-50
2023/03/24 00:36:10;;;;;;;0.50;0.40;;;16.40;99.90;;;16.42;57.42;99711.47;6054773;23;97102;-47
2023/03/24 00:38:38;;;;;;;0.50;0.20;;;16.50;99.90;;;16.43;54.57;99707.84;6052041;23;101700;-48
2023/03/24 00:41:12;;;;;;;0.83;0.43;;;16.40;99.90;;;16.47;53.25;99698.66;6053048;23;98485;-47
2023/03/24 00:43:38;;;;;;;1.10;0.50;;;16.50;99.90;;;16.51;52.75;99694.81;6049230;23;97304;-51
2023/03/24 00:46:09;;;;;;;1.00;0.50;;;16.60;99.90;;;16.55;55.06;99697.13;6054467;23;96923;-50
2023/03/24 00:48:37;;;;;;;0.20;0.20;;;16.60;99.90;;;16.54;56.95;99694.59;6047927;23;101654;-50
2023/03/24 00:51:06;;;;;;;1.33;0.43;;;16.60;99.90;;;16.58;55.63;99701.38;6052659;23;97334;-50
2023/03/24 00:53:33;;;;;;;1.40;0.60;;;16.60;99.90;;;16.62;52.92;99692.19;6050267;23;97350;-50
2023/03/24 00:56:00;;;;;;;1.00;0.30;;;16.60;99.90;;;16.62;55.80;99694.84;6054922;23;97424;-48
2023/03/24 00:58:28;;;;;;;0.40;0.37;;;16.70;99.90;;;16.61;53.79;99685.16;6022794;23;97017;-53
2023/03/24 01:00:56;;;;;;;1.30;0.33;;;16.60;99.90;;;16.62;52.61;99687.69;6054864;23;97139;-50
2023/03/24 01:03:26;;;;;;;0.67;0.30;;;16.60;99.90;;;16.66;55.28;99683.03;6049171;23;97225;-52
2023/03/24 01:05:56;;;;;;;5.17;0.63;;;16.70;99.90;;;16.64;55.45;99675.16;6066185;23;98559;-49
2023/03/24 01:08:24;;;;;;;0.87;0.33;;;16.60;99.90;;;16.61;57.30;99674.50;6063700;23;97092;-49
2023/03/24 01:10:54;;;;;;;1.73;0.50;;;16.60;99.90;;;16.58;52.79;99674.75;6065332;23;97015;-50
2023/03/24 01:13:28;;;;;;;1.60;0.30;;;16.60;99.90;;;16.58;55.53;99680.06;6063235;23;103907;-51
2023/03/24 01:15:55;;;;;;;2.30;0.40;;;16.50;99.90;;;16.58;54.45;99675.59;6068100;23;96948;-48
2023/03/24 01:18:24;;;;;;;0.20;0.20;;;16.60;99.90;;;16.60;52.60;99667.50;6062061;23;97951;-48
2023/03/24 01:20:50;;;;;;;0.50;0.30;;;16.60;99.90;;;16.57;56.00;99683.72;6067018;23;98116;-50
2023/03/24 01:23:24;;;;;;;0.30;0.30;;;16.60;99.90;;;16.58;52.99;99674.75;6064959;23;97247;-49
2023/03/24 01:25:51;;;;;;;1.20;0.53;;;16.50;99.90;;;16.56;57.01;99668.69;6068024;23;101535;-49
2023/03/24 01:28:23;;;;;;;1.00;0.40;;;16.60;99.90;;;16.49;57.76;99675.44;6062739;23;97445;-50
2023/03/24 01:30:53;;;;;;;0.20;0.20;;;16.50;99.90;;;16.53;53.62;99666.28;6068608;23;97362;-51
2023/03/24 01:33:21;;;;;;;1.23;0.40;;;16.50;99.90;;;16.50;57.99;99671.84;6061787;23;97154;-48
2023/03/24 01:35:47;;;;;;;0.47;0.30;;;16.50;99.90;;;16.53;53.64;99668.94;6068287;23;97119;-52
2023/03/24 01:38:14;;;;;;;0.30;0.20;;;16.50;99.90;;;16.54;54.44;99662.66;6064151;23;98455;-48
2023/03/24 01:40:43;;;;;;;0.30;0.30;;;16.50;99.90;;;16.50;53.25;99656.72;6065541;23;102834;-48
2023/03/24 01:43:25;;;;;;;0.37;0.17;;;16.40;99.90;;;16.56;52.95;99644.75;6068419;23;98172;-53
2023/03/24 01:46:11;;;;;;;0.80;0.40;;;16.50;99.90;;;16.54;53.86;99641.34;6066104;23;97416;-49
2023/03/24 01:48:54;;;;;;;0.37;0.20;;;16.50;99.90;;;16.53;53.64;99647.66;6062279;23;103867;-53
2023/03/24 01:51:35;;;;;;;0.67;0.57;;;16.50;99.90;;;16.48;53.67;99636.47;6062595;23;97169;-52
2023/03/24 01:54:07;;;;;;;0.90;0.40;;;16.50;99.90;;;16.48;58.44;99631.16;6041179;23;97495;-49
2023/03/24 01:56:39;;;;;;;0.53;0.30;;;16.40;99.90;;;16.47;53.38;99621.47;6062273;23;96887;-51
2023/03/24 01:59:10;;;;;;;1.23;0.60;;;16.40;99.90;;;16.42;57.71;99615.66;6066538;23;97372;-48
2023/03/24 02:01:36;;;;;;;3.20;0.63;;;16.40;99.90;;;16.42;59.38;99605.88;6036149;23;102288;-49
2023/03/24 02:04:05;;;;;;;1.07;0.67;;;16.40;99.90;;;16.35;55.84;99604.66;6043915;23;97344;-52
2023/03/24 02:06:39;;;;;;;1.53;0.50;;;16.30;99.90;;;16.38;54.79;99592.94;6062385;23;98374;-50
2023/03/24 02:09:07;;;;;;;2.00;1.10;;;16.30;99.90;;;16.33;58.75;99586.13;6065908;23;97150;-47
2023/03/24 02:11:36;;;;;;;2.40;1.13;;;16.30;99.90;;;16.31;58.66;99572.09;6063900;23;97549;-50
2023/03/24 02:14:03;;;;;;;1.67;0.90;;;16.30;99.90;;;16.26;59.74;99571.59;6068458;23;97029;-50
2023/03/24 02:17:09;;;;;;;0.63;0.37;;;16.30;99.90;;;16.31;57.66;99558.78;6062708;23;97015;-47
2023/03/24 02:20:15;;;;;;;0.60;0.37;;;16.30;99.90;;;16.31;55.47;99557.94;6060864;23;98407;-50
2023/03/24 02:22:53;;;;;;;1.20;0.57;;;16.30;99.90;;;16.28;59.18;99553.69;6061716;23;101623;-51
2023/03/24 02:25:56;;;;;;;1.03;0.30;;;16.30;99.90;;;16.30;54.45;99543.78;6061724;23;96721;-52
2023/03/24 02:28:47;;;;;;;0.93;0.70;;;16.30;99.90;;;16.32;55.99;99536.53;6043494;23;98091;-51
2023/03/24 02:31:43;;;;;;;0.77;0.77;;;16.40;99.90;;;16.33;57.23;99535.56;6062914;23;97504;-52
2023/03/24 02:34:40;;;;;;;0.87;0.60;;;16.40;99.90;;;16.34;57.24;99529.28;6005747;23;97124;-51
2023/03/24 02:37:41;;;;;;;1.87;0.90;;;16.40;99.90;;;16.36;54.71;99527.38;6064398;23;97296;-51
2023/03/24 02:40:25;;;;;;;1.30;0.47;;;16.40;99.90;;;16.35;57.55;99533.66;6061582;23;97244;-52
2023/03/24 02:43:28;;;;;;;1.33;0.60;;;16.40;99.90;;;16.35;55.39;99525.66;6065767;23;104201;-49
2023/03/24 02:46:25;;;;;;;3.50;1.00;;;16.40;99.90;;;16.30;58.51;99522.50;6068276;23;99689;-52
2023/03/24 02:49:29;;;;;;;1.37;0.73;;;16.30;99.90;;;16.27;55.90;99533.38;6042780;23;97190;-50
2023/03/24 02:52:30;;;;;;;1.33;0.30;;;16.30;99.90;;;16.32;55.94;99528.53;6069734;23;96712;-48
2023/03/24 02:55:24;;;;;;;1.47;0.80;;;16.30;99.90;;;16.35;58.91;99531.00;6041189;23;101318;-50
2023/03/24 02:58:01;;;;;;;4.60;1.00;;;16.40;99.90;;;16.29;60.33;99542.09;6040038;23;102207;-47
2023/03/24 03:00:50;;;;;;;1.03;0.50;;;16.30;99.90;;;16.34;55.57;99529.28;6038675;23;97048;-50
2023/03/24 03:03:37;;;;;;;1.17;0.87;;;16.40;99.90;;;16.28;59.29;99532.41;6063204;23;97332;-47
2023/03/24 03:06:12;;;;;;;3.57;1.33;;;16.30;99.90;;;16.30;59.32;99533.13;6041739;23;98620;-52
2023/03/24 03:08:39;;;;;;;1.17;0.80;;;16.30;99.90;;;16.28;57.80;99528.91;6036634;23;101178;-49
2023/03/24 03:11:11;;;;;;;2.17;0.80;;;16.30;99.90;;;16.24;60.54;99532.78;6067201;23;97226;-50
2023/03/24 03:13:49;;;;;;;1.17;0.50;;;16.30;99.90;;;16.23;58.92;99536.41;6065320;23;97455;-49
2023/03/24 03:16:33;;;;;;;0.93;0.50;;;16.30;99.90;;;16.17;60.48;99531.53;6038091;23;97816;-46
2023/03/24 03:19:08;;;;;;;1.37;0.50;;;16.20;99.90;;;16.18;57.41;99528.75;6065394;23;98339;-47
2023/03/24 03:21:41;;;;;;;1.13;1.00;;;16.20;99.90;;;16.15;60.64;99522.81;6061539;23;97760;-48
2023/03/24 03:24:25;;;;;;;0.90;0.70;;;16.20;99.90;;;16.17;60.03;99532.38;6040043;23;97341;-47
2023/03/24 03:26:56;;;;;;;0.80;0.70;;;16.20;99.90;;;16.11;61.52;99532.03;6064023;23;100278;-48
2023/03/24 03:29:28;;;;;;;2.57;0.50;;;16.20;99.90;;;16.06;60.72;99522.59;6037539;23;96957;-51
2023/03/24 03:32:06;;;;;;;0.53;0.50;;;16.10;99.90;;;16.06;61.15;99519.06;6067957;23;97100;-47
2023/03/24 03:34:51;;;;;;;0.67;0.50;;;16.10;99.90;;;16.07;61.52;99515.44;6060947;23;97482;-48
2023/03/24 03:37:17;;;;;;;1.50;0.97;;;16.10;99.90;;;16.08;59.91;99513.63;6036933;23;97345;-46
2023/03/24 03:40:04;;;;;;;0.80;0.67;;;16.10;99.90;;;16.11;61.54;99511.59;6066667;23;97144;-47
2023/03/24 03:42:30;;;;;;;2.07;1.00;;;16.20;99.90;;;16.07;61.86;99515.44;6040303;23;97384;-48
2023/03/24 03:44:56;;;;;;;1.37;0.73;;;16.10;99.90;;;16.06;60.91;99511.09;6067973;23;97557;-48
2023/03/24 03:47:22;;;;;;;1.87;0.50;;;16.10;99.90;;;16.07;61.29;99512.78;6036496;23;98845;-50
2023/03/24 03:49:49;;;;;;;1.40;0.93;;;16.10;99.90;;;16.07;59.99;99515.44;6069403;23;98875;-47
2023/03/24 03:52:16;;;;;;;0.73;0.60;;;16.10;99.90;;;16.11;61.15;99508.06;6064692;23;96547;-48
2023/03/24 03:54:43;;;;;;;2.50;1.07;;;16.10;99.90;;;16.11;59.77;99513.41;6068964;23;97244;-50
2023/03/24 03:57:11;;;;;;;0.77;0.50;;;16.10;99.90;;;16.13;56.58;99520.28;6069135;23;97903;-47
2023/03/24 03:59:39;;;;;;;0.83;0.70;;;16.20;99.90;;;16.15;60.46;99522.81;6036058;23;101180;-48
2023/03/24 04:02:20;;;;;;;1.60;0.87;;;16.20;99.90;;;16.18;61.58;99522.59;6069642;23;96526;-49
2023/03/24 04:05:13;;;;;;;2.10;1.03;;;16.20;99.90;;;16.16;61.90;99533.34;6065720;23;96767;-46
2023/03/24 04:07:46;;;;;;;1.07;0.80;;;16.20;99.90;;;16.14;61.07;99526.47;6064252;23;102726;-48
2023/03/24 04:10:23;;;;;;;2.20;0.90;;;16.20;99.90;;;16.19;57.80;99530.44;6061908;23;97117;-51
2023/03/24 04:13:36;;;;;;;0.67;0.53;;;16.20;99.90;;;16.13;60.02;99520.28;6041300;23;96692;-50
2023/03/24 04:16:09;;;;;;;1.70;0.93;;;16.20;99.90;;;16.16;60.85;99525.38;6036633;23;97270;-49
2023/03/24 04:18:51;;;;;;;2.40;0.77;;;16.20;99.90;;;16.25;58.27;99523.81;6062118;23;97196;-50
2023/03/24 04:21:32;;;;;;;0.93;0.50;;;16.30;99.90;;;16.24;60.71;99528.31;6066112;23;97059;-46
2023/03/24 04:24:25;;;;;;;1.13;0.80;;;16.30;99.90;;;16.24;59.10;99538.94;6067537;23;97262;-48
2023/03/24 04:27:00;;;;;;;0.97;0.77;;;16.30;99.90;;;16.26;59.71;99537.00;6061504;23;98501;-48
2023/03/24 04:29:35;;;;;;;1.50;1.03;;;16.30;99.90;;;16.26;61.14;99545.00;6062366;23;97105;-49
2023/03/24 04:32:18;;;;;;;0.60;0.57;;;16.30;99.90;;;16.21;61.15;99544.50;6045110;23;100669;-51
2023/03/24 04:34:53;;;;;;;1.13;0.50;;;16.30;99.90;;;16.20;58.83;99548.13;6064092;23;97139;-48
2023/03/24 04:37:31;;;;;;;0.80;0.70;;;16.20;99.90;;;16.22;61.13;99546.19;6063069;23;97280;-49
2023/03/24 04:40:01;;;;;;;1.17;0.73;;;16.30;99.90;;;16.20;61.63;99556.13;6039921;23;97670;-49
2023/03/24 04:42:34;;;;;;;1.07;0.80;;;16.30;99.90;;;16.11;61.80;99558.63;6062996;23;98214;-53
2023/03/24 04:45:01;;;;;;;0.40;0.40;;;16.20;99.90;;;16.17;59.32;99580.25;6067609;23;96980;-52
2023/03/24 04:47:32;;;;;;;0.50;0.47;;;16.20;99.90;;;16.14;59.54;99580.50;6037701;23;97642;-53
2023/03/24 04:50:05;;;;;;;0.40;0.37;;;16.30;99.90;;;16.13;62.07;99594.78;6066767;23;97456;-49
2023/03/24 04:52:31;;;;;;;0.63;0.40;;;16.30;99.90;;;15.94;61.72;99578.50;6064274;23;97057;-49
2023/03/24 04:54:57;;;;;;;1.17;0.50;;;16.20;99.90;;;16.01;58.69;99585.03;6066445;23;97139;-49
2023/03/24 04:57:23;;;;;;;0.43;0.33;;;16.20;99.90;;;16.02;60.69;99608.03;6066210;23;98494;-48
2023/03/24 04:59:49;;;;;;;0.30;0.30;;;16.20;99.90;;;16.03;59.63;99607.91;6066646;23;97284;-50
2023/03/24 05:02:15;;;;;;;0.40;0.30;;;16.20;99.90;;;15.93;58.35;99612.22;6061786;23;97200;-51
2023/03/24 05:04:41;;;;;;;0.53;0.30;;;16.20;99.90;;;15.99;58.25;99613.56;6066201;23;97072;-50
2023/03/24 05:07:06;;;;;;;0.67;0.30;;;16.30;99.90;;;16.02;58.47;99619.50;6067267;23;103221;-49
2023/03/24 05:09:32;;;;;;;0.20;0.20;;;16.30;99.90;;;16.14;57.95;99633.72;6060830;23;109042;-49
2023/03/24 05:11:58;;;;;;;0.40;0.30;;;16.40;99.90;;;16.12;58.19;99640.13;6069550;23;97260;-53
2023/03/24 05:14:24;;;;;;;0.73;0.33;;;16.30;99.90;;;16.12;59.60;99637.44;6062653;23;97551;-49
2023/03/24 05:16:50;;;;;;;1.00;0.40;;;16.40;99.90;;;16.16;57.06;99637.09;6067892;23;97096;-51
2023/03/24 05:19:16;;;;;;;1.07;0.40;;;16.40;99.90;;;16.09;59.65;99641.19;6062644;23;98722;-50
2023/03/24 05:21:42;;;;;;;0.73;0.67;;;16.30;99.90;;;16.17;58.29;99644.13;6066545;23;96904;-49
2023/03/24 05:24:07;;;;;;;0.40;0.40;;;16.30;99.90;;;16.09;56.56;99657.16;6067608;23;100078;-48
2023/03/24 05:26:34;;;;;;;0.50;0.30;;;16.30;99.90;;;15.97;58.56;99666.03;6063834;23;96945;-51
2023/03/24 05:29:00;;;;;;;2.33;0.57;;;16.30;99.90;;;16.00;57.08;99681.75;6065304;23;112770;-50
2023/03/24 05:31:26;;;;;;;2.37;0.53;;;16.30;99.90;;;16.01;57.22;99691.44;6063327;23;107900;-47
2023/03/24 05:33:52;;;;;;;1.23;0.70;;;16.30;99.90;;;16.04;57.56;99702.69;6066953;23;97032;-51
2023/03/24 05:36:17;;;;;;;0.67;0.37;;;16.30;99.90;;;15.99;57.52;99719.97;6063868;23;97154;-52
2023/03/24 05:38:43;;;;;;;1.03;0.50;;;16.30;99.90;;;15.95;57.46;99711.38;6066316;23;98848;-49
2023/03/24 05:41:09;;;;;;;1.13;0.50;;;16.20;99.90;;;15.82;58.53;99717.69;6065431;23;97079;-47
2023/03/24 05:43:35;;;;;;;1.80;0.40;;;16.10;99.90;;;15.63;59.02;99704.88;6063596;23;97177;-51
2023/03/24 05:46:01;;;;;;;0.80;0.37;;;16.00;99.90;;;15.43;58.98;99717.69;6066163;23;97145;-51
2023/03/24 05:48:30;;;;;;;0.40;0.40;;;15.80;99.90;;;15.46;58.38;99713.97;6061240;23;97108;-54
2023/03/24 05:50:55;;;;;;;0.30;0.30;;;15.80;99.90;;;15.42;58.48;99725.78;6067274;23;96636;-52
2023/03/24 05:53:21;;;;;;;0.83;0.50;;;15.80;99.90;;;15.29;58.46;99735.56;6063122;23;99472;-51
2023/03/24 05:55:47;;;;;;;0.77;0.40;;;15.70;99.90;;;15.32;57.93;99740.66;6069233;23;96803;-54
2023/03/24 05:58:14;;;;;;;0.10;0.10;;;15.70;99.90;;;15.28;58.18;99728.56;6064805;23;116231;-53
2023/03/24 06:00:40;;;;;;;0.40;0.40;;;15.60;99.90;;;15.18;57.90;99729.19;6067338;23;97119;-54
2023/03/24 06:03:06;;;;;;;0.73;0.20;;;15.50;99.90;;;15.10;58.50;99733.34;6070976;23;97162;-50
2023/03/24 06:05:32;;;;;;;0.97;0.53;;;15.50;99.90;;;14.97;58.68;99730.66;6062948;23;101395;-50
2023/03/24 06:08:00;;;;;;;0.10;0.10;;;15.30;99.90;;;14.88;59.10;99747.22;6042952;23;98883;-47
2023/03/24 06:10:28;;;;;;;0.77;0.20;;;15.10;99.90;;;14.92;59.33;99756.69;6065464;23;97017;-47
2023/03/24 06:12:55;;;;;;;0.67;0.33;;;15.10;99.90;;;14.93;59.83;99769.03;6068895;23;97232;-50
2023/03/24 06:15:23;;;;;;;0.30;0.20;;;15.10;99.90;;;14.70;60.47;99772.34;6064373;23;97058;-49
2023/03/24 06:17:49;;;;;;;0.73;0.20;;;14.90;99.90;;;14.62;60.37;99780.00;6069423;23;97456;-51
2023/03/24 06:20:17;;;;;;;0.10;0.10;;;14.80;99.90;;;14.52;60.23;99777.94;6059936;23;97587;-47
2023/03/24 06:22:46;;;;;;;0.87;0.40;;;14.70;99.90;;;14.42;60.05;99781.25;6069475;23;96515;-53
2023/03/24 06:25:15;;;;;;;0.13;0.10;;;14.60;99.90;;;14.29;60.40;99786.50;6067098;23;97248;-55
2023/03/24 06:27:46;;;;;;;1.23;0.43;;;14.50;99.90;;;14.29;60.02;99781.19;6066928;23;98700;-49
2023/03/24 06:30:15;;;;;;;0.40;0.20;;;14.40;99.90;;;14.26;59.64;99790.19;6065419;23;96997;-54
2023/03/24 06:32:42;;;;;;;1.63;0.20;;;14.40;99.90;;;14.12;59.87;99803.50;6070043;23;96871;-47
2023/03/24 06:35:08;;;;;;;1.20;0.20;;;14.40;99.90;;;14.05;60.30;99801.34;6067824;23;97207;-49
2023/03/24 06:37:35;;;;;;;0.00;0.00;;;14.20;99.90;;;13.97;60.35;99807.97;6062990;23;97264;-49
2023/03/24 06:40:00;;;;;;;0.47;0.20;;;14.10;99.90;;;13.96;60.14;99827.47;6067445;23;97586;-50
2023/03/24 06:42:26;;;;;;;1.20;0.17;;;14.10;99.90;;;13.90;60.21;99819.06;6063676;23;98265;-48
2023/03/24 06:44:52;;;;;;;0.53;0.10;;;14.00;99.90;;;13.98;59.95;99808.81;6070736;23;97228;-47
2023/03/24 06:47:18;;;;;;;0.17;0.10;;;14.00;99.90;;;14.06;59.94;99821.59;6062401;23;110572;-49
2023/03/24 06:49:44;;;;;;;1.13;0.40;;;14.10;99.90;;;14.14;60.08;99835.22;6067008;23;97424;-50
2023/03/24 06:52:10;;;;;;;0.30;0.23;;;14.20;99.90;;;14.20;60.22;99848.09;6044852;23;96902;-48
2023/03/24 06:54:36;;;;;;;0.30;0.30;;;14.20;99.90;;;13.97;58.98;99870.75;6063703;23;97223;-52
2023/03/24 06:57:02;;;;;;;0.30;0.30;;;14.20;99.90;;;14.11;59.16;99877.84;6068931;23;98332;-50
2023/03/24 06:59:28;;;;;;;2.33;0.53;;;14.30;99.90;;;14.09;57.96;99874.44;6061354;23;108389;-54
2023/03/24 07:01:54;;;;;;;0.70;0.33;;;14.40;99.90;;;14.20;58.98;99867.53;6068194;23;97065;-49
2023/03/24 07:04:20;;;;;;;1.40;0.40;;;14.40;99.90;;;14.12;56.69;99882.19;6061914;23;97031;-52
2023/03/24 07:06:46;;;;;;;0.20;0.20;;;14.50;99.90;;;14.27;57.26;99883.88;6057144;23;96957;-49
2023/03/24 07:09:12;;;;;;;2.20;0.73;;;14.50;99.90;;;14.31;56.30;99869.47;6063504;23;97038;-57
2023/03/24 07:11:38;;;;;;;0.43;0.43;;;14.60;99.90;;;14.19;56.87;99862.31;6069173;23;96984;-52
2023/03/24 07:14:04;;;;;;;1.43;0.47;;;14.50;99.90;;;14.25;57.17;99865.41;6068380;23;97035;-51
2023/03/24 07:16:30;;;;;;;0.63;0.33;;;14.50;99.90;;;14.23;57.27;99863.81;6065338;23;97708;-51
2023/03/24 07:18:56;;;;;;;2.00;0.47;;;14.50;99.90;;;14.16;56.70;99860.69;6070106;23;114004;-48
2023/03/24 07:21:22;;;;;;;0.80;0.60;;;14.40;99.90;;;14.23;58.65;99875.28;6068506;23;99550;-47
2023/03/24 07:23:47;;;;;;;0.97;0.40;;;14.40;99.90;;;14.26;57.17;99893.66;6074745;23;107627;-50
2023/03/24 07:26:13;;;;;;;1.90;0.43;;;14.50;99.90;;;14.49;57.82;99897.53;6068315;23;102423;-48
2023/03/24 07:28:39;;;;;;;0.57;0.40;;;14.70;99.90;;;14.71;56.60;99904.13;6071847;23;97069;-49
2023/03/24 07:31:09;;;;;;;2.03;0.40;;;14.80;99.90;;;14.66;54.88;99892.94;6072954;23;97185;-48
2023/03/24 07:33:37;;;;;;;0.93;0.50;;;14.80;99.90;;;14.77;54.20;99893.13;6068221;23;97797;-47
2023/03/24 07:36:04;;;;;;;5.93;0.90;;;14.90;99.90;;;14.93;56.34;99901.78;6068570;23;97199;-49
2023/03/24 07:38:30;;;;;;;1.17;0.67;;;15.00;99.90;;;14.95;55.99;99899.88;6067442;23;96977;-47
2023/03/24 07:40:58;;;;;;;0.40;0.30;;;15.10;99.90;;;15.10;54.34;99898.00;6069824;23;96974;-49
2023/03/24 07:43:24;;;;;;;1.20;0.50;;;15.30;99.90;;;15.08;55.30;99907.88;6065599;23;97069;-48
2023/03/24 07:45:50;;;;;;;0.80;0.37;;;15.20;99.90;;;15.26;55.82;99908.47;6070929;23;96946;-48
2023/03/24 07:48:16;;;;;;;0.57;0.30;;;15.40;99.90;;;15.42;55.37;99903.81;6065204;23;98440;-49
2023/03/24 07:50:41;;;;;;;2.60;0.40;;;15.60;99.90;;;15.57;54.71;99904.59;6069629;23;103113;-49
2023/03/24 07:53:08;;;;;;;1.43;0.60;;;15.80;99.90;;;15.63;52.46;99905.06;6070697;23;97299;-49
2023/03/24 07:55:38;;;;;;;1.83;0.80;;;15.80;99.90;;;15.59;53.67;99911.53;6064157;23;96955;-49
2023/03/24 07:58:04;;;;;;;1.73;0.73;;;15.70;99.90;;;15.71;53.69;99910.69;6069772;23;97762;-49
2023/03/24 08:00:31;;;;;;;1.80;0.50;;;15.80;99.90;;;15.76;53.97;99910.38;6065716;23;97340;-50
2023/03/24 08:02:59;;;;;;;0.47;0.30;;;15.90;99.90;;;15.79;54.18;99904.03;6068869;23;97168;-50
2023/03/24 08:05:28;;;;;;;3.03;0.40;;;15.80;99.90;;;15.79;52.82;99912.00;6065817;23;96627;-48
2023/03/24 08:07:54;;;;;;;0.57;0.30;;;15.80;99.90;;;15.83;53.79;99921.47;6068685;23;98645;-49
2023/03/24 08:10:25;;;;;;;4.50;1.00;;;15.80;99.90;;;15.66;52.46;99920.81;6065475;23;96936;-47
2023/03/24 08:12:51;;;;;;;0.27;0.17;;;15.70;99.90;;;15.70;54.00;99922.28;6072801;23;97732;-46
2023/03/24 08:15:17;;;;;;;0.97;0.37;;;15.70;99.90;;;15.49;52.21;99931.69;6062292;23;124208;-46
2023/03/24 08:17:44;;;;;;;1.40;0.67;;;15.50;99.90;;;15.42;52.63;99928.59;6070768;23;96880;-49
2023/03/24 08:20:13;;;;;;;1.50;0.20;;;15.50;99.90;;;15.43;52.62;99919.66;6070924;23;97164;-46
2023/03/24 08:22:41;;;;;;;3.20;0.70;;;15.50;99.90;;;15.43;53.79;99924.13;6065213;23;97042;-47
2023/03/24 08:25:09;;;;;;;1.50;0.40;;;15.40;99.90;;;15.37;52.23;99924.56;6066874;23;99695;-49
2023/03/24 08:27:36;;;;;;;1.50;0.37;;;15.40;99.90;;;15.31;52.14;99924.94;6066727;23;97014;-48
2023/03/24 08:30:09;;;;;;;0.43;0.43;;;15.30;99.90;;;15.38;53.61;99912.97;6066947;23;96996;-48
2023/03/24 08:32:35;;;;;;;0.47;0.47;;;15.30;99.90;;;15.42;54.46;99914.44;6067285;23;96905;-48
2023/03/24 08:35:03;;;;;;;2.43;0.33;;;15.40;99.90;;;15.45;52.34;99915.09;6069312;23;97731;-46
2023/03/24 08:37:30;;;;;;;4.70;0.40;;;15.60;99.90;;;15.40;53.32;99919.03;6064776;23;97160;-47
2023/03/24 08:39:57;;;;;;;2.40;0.60;;;15.50;99.90;;;15.55;54.06;99910.00;6071048;23;97067;-48
2023/03/24 08:42:24;;;;;;;1.33;0.27;;;15.60;99.90;;;15.50;52.11;99908.63;6063954;23;97381;-46
2023/03/24 08:44:51;;;;;;;0.87;0.50;;;15.60;99.90;;;15.41;53.32;99918.06;6067892;23;99356;-51
2023/03/24 08:47:16;;;;;;;1.33;0.50;;;15.40;99.90;;;15.43;53.51;99918.81;6066884;23;98713;-47
2023/03/24 08:49:42;;;;;;;2.23;0.70;;;15.40;99.90;;;15.41;52.50;99915.41;6068310;23;109997;-47
2023/03/24 08:52:08;;;;;;;0.73;0.30;;;15.50;99.90;;;15.53;53.23;99909.28;6067660;23;105468;-50
2023/03/24 08:54:35;;;;;;;1.60;0.80;;;15.60;99.90;;;15.57;53.79;99916.06;6066567;23;97249;-46
2023/03/24 08:57:01;;;;;;;2.23;0.90;;;15.60;99.90;;;15.62;52.51;99924.63;6063844;23;96950;-46
2023/03/24 08:59:26;;;;;;;2.87;0.70;;;15.70;99.90;;;15.55;52.73;99927.78;6052282;23;102552;-49
2023/03/24 09:01:52;;;;;;;1.07;0.73;;;15.70;99.90;;;15.37;50.97;99921.88;6069153;23;97136;-50
2023/03/24 09:04:18;;;;;;;1.47;0.77;;;15.70;99.90;;;15.38;52.75;99929.75;6063918;23;114663;-50
2023/03/24 09:06:44;;;;;;;0.90;0.60;;;15.50;99.90;;;15.44;52.02;99931.13;6071711;23;97343;-49
2023/03/24 09:09:10;;;;;;;2.67;0.73;;;15.60;99.90;;;15.24;51.51;99944.91;6067041;23;97537;-47
2023/03/24 09:11:35;;;;;;;1.50;0.90;;;15.50;99.90;;;15.29;53.34;99932.16;6064719;23;96937;-53
2023/03/24 09:14:01;;;;;;;2.70;0.70;;;15.50;99.90;;;15.33;53.14;99939.81;6070700;23;107456;-49
2023/03/24 09:16:27;;;;;;;1.87;0.80;;;15.50;99.90;;;15.30;52.99;99939.19;6065071;23;97435;-47
2023/03/24 09:18:53;;;;;;;3.73;1.47;;;15.40;99.90;;;15.33;53.50;99944.28;6071464;23;97132;-51
2023/03/24 09:21:19;;;;;;;1.67;0.83;;;15.50;99.90;;;15.37;51.93;99957.28;6065797;23;97070;-49
2023/03/24 09:23:44;;;;;;;4.83;0.57;;;15.60;99.90;;;15.10;52.01;99946.66;6068910;23;98777;-47
2023/03/24 09:26:11;;;;;;;1.40;0.70;;;15.40;99.90;;;15.17;53.78;99945.31;6071671;23;97042;-50
2023/03/24 09:28:36;;;;;;;2.43;0.60;;;15.40;99.90;;;15.35;54.65;99945.06;6065467;23;97296;-49
2023/03/24 09:31:05;;;;;;;1.50;0.80;;;15.50;99.90;;;15.45;53.19;99943.47;6069254;23;97511;-50
2023/03/24 09:33:33;;;;;;;1.23;0.60;;;15.60;99.90;;;15.48;51.97;99946.78;6066253;23;97559;-46
2023/03/24 09:36:01;;;;;;;0.80;0.60;;;15.70;99.90;;;15.53;53.12;99946.47;6067413;23;97138;-47
2023/03/24 09:38:28;;;;;;;1.27;0.70;;;15.80;99.90;;;15.54;50.65;99942.00;6061987;23;98492;-52
2023/03/24 09:41:02;;;;;;;2.37;0.80;;;15.80;99.90;;;15.45;50.07;99954.09;6069973;23;97106;-46
2023/03/24 09:43:42;;;;;;;0.90;0.60;;;15.70;99.90;;;15.56;52.59;99940.09;6065223;23;97515;-49
2023/03/24 09:46:29;;;;;;;1.17;0.67;;;15.80;99.90;;;15.40;50.35;99950.91;6068373;23;97144;-46
2023/03/24 09:48:56;;;;;;;1.57;0.60;;;15.70;99.90;;;15.33;51.97;99944.28;6064433;23;97048;-48
2023/03/24 09:51:28;;;;;;;2.90;0.87;;;15.70;99.90;;;15.29;49.91;99956.94;6067559;23;97404;-47
2023/03/24 09:54:18;;;;;;;3.07;0.53;;;15.70;99.90;;;15.37;52.36;99967.06;6068862;23;98117;-48
2023/03/24 09:56:46;;;;;;;0.70;0.40;;;15.70;99.90;;;15.35;50.81;99958.34;6063631;23;101244;-46
2023/03/24 09:59:17;;;;;;;2.43;0.43;;;15.70;99.90;;;15.32;50.72;99964.69;6068636;23;96902;-48
2023/03/24 10:01:43;;;;;;;3.77;0.60;;;15.70;99.90;;;15.26;53.36;99959.78;6067202;23;97118;-47
2023/03/24 10:04:20;;;;;;;0.47;0.33;;;15.60;99.90;;;15.26;50.39;99965.09;6067762;23;97420;-50
2023/03/24 10:06:51;;;;;;;1.30;0.57;;;15.60;99.90;;;15.35;51.00;99974.28;6065918;23;101182;-50
2023/03/24 10:09:23;;;;;;;2.00;0.57;;;15.70;99.90;;;15.34;51.02;99977.91;6065240;23;96801;-47
2023/03/24 10:12:19;;;;;;;2.93;0.80;;;15.70;99.90;;;15.31;50.86;99972.75;6069049;23;97135;-47
2023/03/24 10:14:57;;;;;;;2.07;0.67;;;15.70;99.90;;;15.37;51.01;99977.69;6063355;23;101963;-47
2023/03/24 10:17:56;;;;;;;3.77;0.70;;;15.70;99.90;;;15.53;49.91;99978.38;6062823;23;97398;-49
2023/03/24 10:20:53;;;;;;;1.50;0.40;;;15.80;99.90;;;15.58;50.37;99986.88;6064875;23;99296;-49
2023/03/24 10:24:09;;;;;;;2.93;0.60;;;15.90;99.90;;;15.28;51.00;99999.53;6066110;23;96543;-49
2023/03/24 10:27:19;;;;;;;2.00;0.40;;;15.70;99.90;;;15.23;50.62;99985.72;6061825;23;97160;-47
2023/03/24 10:29:46;;;;;;;3.50;0.50;;;15.50;99.90;;;15.20;50.36;100001.88;6063608;23;101539;-47
2023/03/24 10:32:25;;;;;;;1.33;0.27;;;15.50;99.90;;;15.08;50.65;99988.41;6040240;23;96644;-53
2023/03/24 10:34:57;;;;;;;1.80;0.50;;;15.40;99.90;;;15.10;50.56;99999.78;6046850;23;96996;-46
2023/03/24 10:37:23;;;;;;;4.20;0.73;;;15.40;99.90;;;14.97;50.67;99990.06;6062301;23;97510;-47